createdAt,value
2023-08-14T00:01:11.288Z,29.94
2023-08-14T00:03:38.315Z,29.94
2023-08-14T00:06:05.352Z,29.89
2023-08-14T00:08:32.492Z,29.88
2023-08-14T00:10:59.547Z,29.75
2023-08-14T00:13:27.255Z,29.75
2023-08-14T00:15:54.480Z,29.88
2023-08-14T00:18:21.897Z,29.54
2023-08-14T00:20:48.943Z,29.65
2023-08-14T00:23:16.038Z,29.77
2023-08-14T00:25:43.751Z,29.70
2023-08-14T00:28:10.855Z,29.60
2023-08-14T00:30:37.873Z,29.73
2023-08-14T00:33:05.529Z,29.73
2023-08-14T00:35:32.582Z,29.66
2023-08-14T00:37:59.552Z,29.62
2023-08-14T00:40:26.544Z,29.66
2023-08-14T00:42:54.293Z,29.45
2023-08-14T00:45:24.814Z,29.50
2023-08-14T00:47:55.467Z,29.64
2023-08-14T00:50:22.836Z,29.57
2023-08-14T00:52:56.869Z,29.86
2023-08-14T00:55:28.268Z,29.68
2023-08-14T00:57:55.746Z,29.73
2023-08-14T01:00:24.404Z,29.79
2023-08-14T01:02:51.579Z,29.68
2023-08-14T01:05:18.962Z,29.62
2023-08-14T01:07:45.950Z,29.65
2023-08-14T01:10:13.528Z,29.67
2023-08-14T01:12:59.907Z,29.71
2023-08-14T01:15:32.704Z,29.68
2023-08-14T01:18:03.032Z,29.65
2023-08-14T01:20:33.746Z,29.63
2023-08-14T01:23:23.725Z,29.71
2023-08-14T01:25:53.271Z,29.65
2023-08-14T01:28:20.572Z,29.67
2023-08-14T01:30:47.640Z,29.83
2023-08-14T01:33:14.916Z,29.49
2023-08-14T01:36:05.029Z,29.71
2023-08-14T01:38:47.764Z,29.95
2023-08-14T01:41:30.026Z,30.36
2023-08-14T01:43:59.540Z,30.06
2023-08-14T01:46:28.223Z,30.25
2023-08-14T01:48:57.454Z,30.35
2023-08-14T01:51:25.573Z,30.23
2023-08-14T01:53:52.711Z,30.17
2023-08-14T01:56:19.661Z,30.11
2023-08-14T01:58:46.645Z,29.90
2023-08-14T02:01:13.633Z,30.33
2023-08-14T02:03:42.053Z,29.61
2023-08-14T02:06:09.123Z,29.61
2023-08-14T02:08:37.798Z,28.84
2023-08-14T02:11:09.078Z,28.61
2023-08-14T02:13:37.105Z,42.65
2023-08-14T02:16:04.894Z,31.35
2023-08-14T02:18:32.177Z,29.24
2023-08-14T02:20:59.242Z,29.05
2023-08-14T02:23:26.365Z,29.15
2023-08-14T02:25:56.717Z,29.64
2023-08-14T02:28:23.879Z,29.29
2023-08-14T02:30:50.844Z,29.38
2023-08-14T02:33:18.684Z,29.55
2023-08-14T02:35:46.097Z,29.48
2023-08-14T02:38:16.247Z,29.39
2023-08-14T02:40:44.506Z,29.64
2023-08-14T02:43:11.573Z,29.66
2023-08-14T02:45:38.764Z,29.24
2023-08-14T02:48:06.091Z,29.51
2023-08-14T02:50:33.381Z,29.09
2023-08-14T02:53:00.338Z,29.40
2023-08-14T02:55:28.104Z,29.71
2023-08-14T02:57:55.196Z,29.50
2023-08-14T03:00:22.946Z,29.13
2023-08-14T03:02:50.055Z,28.86
2023-08-14T03:05:18.176Z,29.25
2023-08-14T03:07:45.169Z,28.90
2023-08-14T03:10:12.164Z,28.80
2023-08-14T03:12:39.241Z,28.83
2023-08-14T03:15:07.491Z,28.56
2023-08-14T03:17:34.552Z,28.82
2023-08-14T03:20:01.850Z,28.87
2023-08-14T03:22:28.882Z,28.78
2023-08-14T03:24:55.884Z,28.85
2023-08-14T03:27:22.948Z,28.88
2023-08-14T03:29:49.956Z,28.55
2023-08-14T03:32:17.622Z,28.13
2023-08-14T03:34:46.301Z,27.96
2023-08-14T03:37:13.290Z,28.04
2023-08-14T03:39:40.972Z,28.31
2023-08-14T03:42:08.796Z,28.35
2023-08-14T03:44:35.943Z,28.29
2023-08-14T03:47:03.166Z,28.06
2023-08-14T03:49:30.573Z,27.78
2023-08-14T03:51:57.739Z,27.55
2023-08-14T03:54:24.810Z,27.44
2023-08-14T03:56:51.868Z,27.97
2023-08-14T03:59:18.843Z,28.85
2023-08-14T04:01:45.998Z,27.90
2023-08-14T04:04:13.097Z,28.00
2023-08-14T04:06:40.111Z,27.78
2023-08-14T04:09:07.720Z,27.64
2023-08-14T04:11:34.743Z,27.42
2023-08-14T04:14:01.866Z,28.82
2023-08-14T04:16:42.505Z,29.20
2023-08-14T04:19:15.363Z,29.87
2023-08-14T04:21:43.467Z,29.80
2023-08-14T04:24:11.241Z,28.51
2023-08-14T04:26:38.327Z,27.94
2023-08-14T04:29:07.949Z,27.64
2023-08-14T04:31:40.116Z,27.29
2023-08-14T04:34:09.411Z,27.29
2023-08-14T04:36:38.404Z,27.52
2023-08-14T04:39:05.910Z,27.21
2023-08-14T04:41:33.145Z,27.16
2023-08-14T04:44:01.520Z,27.30
2023-08-14T04:46:48.939Z,27.33
2023-08-14T04:49:23.245Z,27.50
2023-08-14T04:51:50.932Z,27.41
2023-08-14T04:54:18.686Z,27.43
2023-08-14T04:56:46.150Z,27.55
2023-08-14T04:59:13.169Z,28.37
2023-08-14T05:01:40.661Z,28.00
2023-08-14T05:04:08.051Z,27.78
2023-08-14T05:06:35.898Z,28.02
2023-08-14T05:09:16.102Z,28.06
2023-08-14T05:11:51.346Z,28.20
2023-08-14T05:14:20.208Z,27.95
2023-08-14T05:16:48.314Z,27.98
2023-08-14T05:19:15.534Z,27.75
2023-08-14T05:21:43.405Z,27.54
2023-08-14T05:24:10.605Z,27.56
2023-08-14T05:26:37.559Z,27.65
2023-08-14T05:29:04.994Z,27.72
2023-08-14T05:31:32.121Z,27.50
2023-08-14T05:33:59.217Z,27.68
2023-08-14T05:36:26.198Z,27.37
2023-08-14T05:38:53.326Z,27.42
2023-08-14T05:41:22.760Z,27.54
2023-08-14T05:43:52.410Z,27.53
2023-08-14T05:46:20.400Z,27.47
2023-08-14T05:48:47.487Z,27.69
2023-08-14T05:51:14.513Z,27.93
2023-08-14T05:53:41.560Z,28.37
2023-08-14T05:56:08.816Z,28.20
2023-08-14T05:58:35.838Z,27.61
2023-08-14T06:01:03.951Z,27.40
2023-08-14T06:03:42.567Z,26.92
2023-08-14T06:06:11.140Z,26.77
2023-08-14T06:08:38.159Z,27.19
2023-08-14T06:11:05.392Z,27.32
2023-08-14T06:13:33.016Z,27.07
2023-08-14T06:16:00.806Z,27.42
2023-08-14T06:18:28.047Z,27.24
2023-08-14T06:20:55.854Z,27.55
2023-08-14T06:23:22.899Z,27.81
2023-08-14T06:25:49.948Z,28.14
2023-08-14T06:28:16.888Z,28.35
2023-08-14T06:30:43.933Z,28.26
2023-08-14T06:33:11.162Z,27.74
2023-08-14T06:35:38.289Z,27.94
2023-08-14T06:38:05.284Z,27.84
2023-08-14T06:40:32.634Z,27.70
2023-08-14T06:43:00.368Z,27.35
2023-08-14T06:45:27.461Z,27.58
2023-08-14T06:47:54.454Z,27.82
2023-08-14T06:50:21.427Z,27.91
2023-08-14T06:52:48.739Z,27.84
2023-08-14T06:55:15.744Z,28.44
2023-08-14T06:57:42.719Z,28.51
2023-08-14T07:00:14.789Z,28.26
2023-08-14T07:02:42.361Z,28.41
2023-08-14T07:05:12.149Z,28.38
2023-08-14T07:07:40.168Z,27.45
2023-08-14T07:10:08.316Z,27.55
2023-08-14T07:12:35.334Z,28.07
2023-08-14T07:15:02.378Z,28.12
2023-08-14T07:17:29.985Z,28.06
2023-08-14T07:19:57.018Z,27.94
2023-08-14T07:22:24.268Z,27.93
2023-08-14T07:24:51.293Z,27.88
2023-08-14T07:27:18.332Z,28.32
2023-08-14T07:29:45.422Z,28.20
2023-08-14T07:32:12.572Z,28.40
2023-08-14T07:34:39.635Z,28.47
2023-08-14T07:37:06.669Z,28.40
2023-08-14T07:39:33.685Z,28.32
2023-08-14T07:42:00.820Z,28.23
2023-08-14T07:44:27.904Z,28.32
2023-08-14T07:46:54.921Z,28.11
2023-08-14T07:49:21.953Z,28.47
2023-08-14T07:51:49.234Z,27.88
2023-08-14T07:54:16.335Z,28.04
2023-08-14T07:56:46.122Z,28.07
2023-08-14T07:59:14.181Z,28.43
2023-08-14T08:01:43.026Z,28.03
2023-08-14T08:04:10.276Z,28.34
2023-08-14T08:06:44.536Z,27.97
2023-08-14T08:09:13.601Z,28.11
2023-08-14T08:11:40.621Z,28.75
2023-08-14T08:14:07.914Z,28.74
2023-08-14T08:16:38.185Z,28.83
2023-08-14T08:19:08.399Z,28.98
2023-08-14T08:21:35.545Z,28.92
2023-08-14T08:24:02.498Z,29.11
2023-08-14T08:26:29.662Z,28.86
2023-08-14T08:28:56.678Z,28.67
2023-08-14T08:31:24.042Z,29.35
2023-08-14T08:33:51.256Z,29.00
2023-08-14T08:36:18.789Z,29.16
2023-08-14T08:38:47.448Z,29.48
2023-08-14T08:41:23.290Z,29.42
2023-08-14T08:44:11.088Z,30.00
2023-08-14T08:46:44.268Z,29.88
2023-08-14T08:49:12.240Z,29.59
2023-08-14T08:51:40.725Z,29.69
2023-08-14T08:54:07.925Z,29.74
2023-08-14T08:56:35.996Z,29.41
2023-08-14T08:59:04.550Z,29.62
2023-08-14T09:01:32.170Z,29.42
2023-08-14T09:03:59.514Z,29.34
2023-08-14T09:06:26.830Z,29.33
2023-08-14T09:08:54.212Z,29.78
2023-08-14T09:11:21.995Z,29.83
2023-08-14T09:13:49.660Z,29.58
2023-08-14T09:16:19.818Z,30.11
2023-08-14T09:18:50.022Z,30.60
2023-08-14T09:21:17.605Z,29.97
2023-08-14T09:23:44.823Z,30.58
2023-08-14T09:26:12.947Z,30.51
2023-08-14T09:28:40.272Z,30.72
2023-08-14T09:31:09.162Z,30.66
2023-08-14T09:33:40.052Z,30.95
2023-08-14T09:36:07.950Z,30.81
2023-08-14T09:38:35.508Z,30.89
2023-08-14T09:41:03.086Z,30.63
2023-08-14T09:43:32.308Z,30.73
2023-08-14T09:46:02.047Z,30.71
2023-08-14T09:48:43.863Z,30.83
2023-08-14T09:51:12.827Z,30.54
2023-08-14T09:53:56.569Z,31.11
2023-08-14T09:56:24.811Z,31.02
2023-08-14T09:58:54.348Z,31.62
2023-08-14T10:01:23.476Z,31.94
2023-08-14T10:03:55.372Z,31.93
2023-08-14T10:06:26.825Z,31.83
2023-08-14T10:09:00.893Z,31.44
2023-08-14T10:11:30.322Z,31.87
2023-08-14T10:14:02.986Z,31.44
2023-08-14T10:16:36.711Z,32.01
2023-08-14T10:19:11.391Z,31.92
2023-08-14T10:21:41.667Z,31.96
2023-08-14T10:24:09.033Z,31.90
2023-08-14T10:26:36.108Z,32.37
2023-08-14T10:29:04.688Z,32.63
2023-08-14T10:31:33.996Z,33.00
2023-08-14T10:34:01.567Z,33.34
2023-08-14T10:36:29.954Z,32.92
2023-08-14T10:39:18.097Z,32.95
2023-08-14T10:41:46.050Z,32.95
2023-08-14T10:44:13.333Z,33.47
2023-08-14T10:46:44.039Z,33.35
2023-08-14T10:49:14.946Z,33.23
2023-08-14T10:51:43.857Z,33.01
2023-08-14T10:54:16.091Z,32.99
2023-08-14T10:56:47.177Z,33.18
2023-08-14T10:59:27.770Z,33.46
2023-08-14T11:02:11.506Z,33.67
2023-08-14T11:05:02.448Z,33.58
2023-08-14T11:07:31.679Z,33.11
2023-08-14T11:10:03.271Z,33.44
2023-08-14T11:12:33.151Z,33.73
2023-08-14T11:15:00.463Z,33.84
2023-08-14T11:17:29.165Z,35.02
2023-08-14T11:19:56.692Z,35.12
2023-08-14T11:22:23.954Z,35.90
2023-08-14T11:24:51.607Z,35.26
2023-08-14T11:27:18.833Z,34.26
2023-08-14T11:29:52.907Z,33.83
2023-08-14T11:32:21.451Z,34.13
2023-08-14T11:34:49.161Z,33.86
2023-08-14T11:37:17.276Z,33.77
2023-08-14T11:39:45.660Z,32.93
2023-08-14T11:42:12.916Z,33.53
2023-08-14T11:44:40.114Z,35.19
2023-08-14T11:47:10.610Z,34.45
2023-08-14T11:49:39.323Z,35.54
2023-08-14T11:52:07.745Z,35.91
2023-08-14T11:54:35.891Z,33.82
2023-08-14T11:57:04.965Z,36.45
2023-08-14T11:59:32.614Z,36.30
2023-08-14T12:01:59.842Z,36.99
2023-08-14T12:04:27.811Z,36.00
2023-08-14T12:06:56.437Z,36.77
2023-08-14T12:09:29.634Z,36.13
2023-08-14T12:11:56.695Z,35.76
2023-08-14T12:14:23.733Z,36.10
2023-08-14T12:16:50.917Z,36.22
2023-08-14T12:19:21.917Z,36.65
2023-08-14T12:21:57.878Z,34.97
2023-08-14T12:24:25.393Z,35.70
2023-08-14T12:26:52.577Z,35.59
2023-08-14T12:29:20.203Z,34.58
2023-08-14T12:31:48.073Z,33.47
2023-08-14T12:34:17.259Z,34.63
2023-08-14T12:36:44.267Z,34.17
2023-08-14T12:39:11.647Z,34.94
2023-08-14T12:41:39.553Z,34.92
2023-08-14T12:44:06.708Z,34.70
2023-08-14T12:46:33.840Z,34.38
2023-08-14T12:49:00.904Z,33.10
2023-08-14T12:51:27.950Z,32.08
2023-08-14T12:53:54.980Z,32.17
2023-08-14T12:58:56.738Z,32.34
2023-08-14T13:01:24.562Z,32.69
2023-08-14T13:03:53.290Z,32.34
2023-08-14T13:06:21.370Z,32.62
2023-08-14T13:08:48.893Z,32.54
2023-08-14T13:11:18.930Z,32.89
2023-08-14T13:13:46.611Z,32.70
2023-08-14T13:16:14.026Z,32.55
2023-08-14T13:18:41.115Z,32.09
2023-08-14T13:21:08.152Z,31.14
2023-08-14T13:23:35.124Z,31.05
2023-08-14T13:26:02.169Z,31.97
2023-08-14T13:28:31.034Z,32.32
2023-08-14T13:30:58.071Z,32.30
2023-08-14T13:33:25.154Z,33.17
2023-08-14T13:35:52.145Z,33.00
2023-08-14T13:38:19.149Z,32.95
2023-08-14T13:40:46.140Z,33.17
2023-08-14T13:43:14.528Z,33.55
2023-08-14T13:45:44.169Z,33.99
2023-08-14T13:48:11.464Z,34.09
2023-08-14T13:50:38.722Z,35.66
2023-08-14T13:53:06.799Z,35.59
2023-08-14T13:55:34.750Z,34.47
2023-08-14T13:58:02.963Z,33.02
2023-08-14T14:00:31.395Z,33.82
2023-08-14T14:02:59.965Z,35.15
2023-08-14T14:05:28.612Z,34.55
2023-08-14T14:07:57.482Z,33.88
2023-08-14T14:10:28.511Z,34.65
2023-08-14T14:13:01.949Z,34.40
2023-08-14T14:15:31.147Z,33.64
2023-08-14T14:17:58.620Z,32.81
2023-08-14T14:20:25.972Z,33.18
2023-08-14T14:22:52.937Z,33.13
2023-08-14T14:25:20.010Z,32.86
2023-08-14T14:27:47.117Z,32.97
2023-08-14T14:30:14.276Z,33.34
2023-08-14T14:32:41.293Z,33.64
2023-08-14T14:35:08.855Z,34.53
2023-08-14T14:37:36.069Z,34.89
2023-08-14T14:40:03.416Z,34.66
2023-08-14T14:42:30.524Z,33.83
2023-08-14T14:44:57.636Z,33.93
2023-08-14T14:47:25.564Z,34.45
2023-08-14T14:49:53.093Z,34.16
2023-08-14T14:52:20.500Z,34.70
2023-08-14T14:54:47.872Z,34.21
2023-08-14T14:57:15.386Z,33.87
2023-08-14T14:59:43.412Z,33.86
2023-08-14T15:02:23.566Z,33.07
2023-08-14T15:04:55.127Z,33.54
2023-08-14T15:07:22.414Z,33.67
2023-08-14T15:09:49.683Z,33.54
2023-08-14T15:12:16.682Z,33.96
2023-08-14T15:14:43.822Z,33.94
2023-08-14T15:17:11.578Z,34.09
2023-08-14T15:19:38.894Z,34.25
2023-08-14T15:22:05.989Z,33.46
2023-08-14T15:24:33.025Z,33.78
2023-08-14T15:27:00.086Z,34.09
2023-08-14T15:29:27.166Z,33.82
2023-08-14T15:31:54.634Z,33.51
2023-08-14T15:34:21.612Z,33.00
2023-08-14T15:36:48.582Z,33.29
2023-08-14T15:39:15.577Z,33.67
2023-08-14T15:41:43.504Z,33.98
2023-08-14T15:44:12.528Z,33.58
2023-08-14T15:46:39.840Z,33.15
2023-08-14T15:49:08.454Z,33.74
2023-08-14T15:51:36.796Z,33.79
2023-08-14T15:54:04.572Z,33.63
2023-08-14T15:56:31.578Z,32.91
2023-08-14T15:58:58.639Z,33.62
2023-08-14T16:01:25.688Z,33.59
2023-08-14T16:03:54.063Z,33.08
2023-08-14T16:06:22.266Z,33.14
2023-08-14T16:08:49.335Z,33.77
2023-08-14T16:11:16.949Z,33.50
2023-08-14T16:13:45.187Z,33.66
2023-08-14T16:16:12.707Z,33.72
2023-08-14T16:18:39.849Z,34.01
2023-08-14T16:21:08.297Z,34.49
2023-08-14T16:23:35.449Z,34.20
2023-08-14T16:26:02.482Z,34.14
2023-08-14T16:28:29.708Z,33.78
2023-08-14T16:30:59.289Z,33.84
2023-08-14T16:33:27.572Z,33.37
2023-08-14T16:35:55.527Z,34.18
2023-08-14T16:38:22.688Z,33.65
2023-08-14T16:40:50.738Z,33.25
2023-08-14T16:43:20.462Z,33.43
2023-08-14T16:45:50.000Z,33.79
2023-08-14T16:48:17.365Z,33.62
2023-08-14T16:50:45.489Z,32.97
2023-08-14T16:53:12.694Z,32.43
2023-08-14T16:55:39.868Z,32.48
2023-08-14T16:58:06.951Z,32.10
2023-08-14T17:00:34.002Z,32.12
2023-08-14T17:03:03.608Z,32.05
2023-08-14T17:05:31.193Z,32.32
2023-08-14T17:07:58.483Z,31.99
2023-08-14T17:10:25.679Z,32.18
2023-08-14T17:12:52.712Z,32.12
2023-08-14T17:17:51.908Z,32.31
2023-08-14T17:20:19.095Z,32.43
2023-08-14T17:22:46.175Z,32.00
2023-08-14T17:25:13.374Z,32.61
2023-08-14T17:27:40.410Z,33.39
2023-08-14T17:30:08.511Z,33.51
2023-08-14T17:32:35.519Z,33.41
2023-08-14T17:35:02.663Z,33.12
2023-08-14T17:37:30.314Z,32.96
2023-08-14T17:39:57.368Z,33.15
2023-08-14T17:42:24.418Z,32.99
2023-08-14T17:44:51.429Z,33.38
2023-08-14T17:47:18.814Z,32.99
2023-08-14T17:49:46.037Z,33.38
2023-08-14T17:52:13.284Z,33.37
2023-08-14T17:54:40.378Z,33.35
2023-08-14T17:57:07.630Z,33.40
2023-08-14T17:59:34.632Z,33.25
2023-08-14T18:02:01.711Z,33.28
2023-08-14T18:04:33.145Z,33.49
2023-08-14T18:07:09.155Z,33.17
2023-08-14T18:09:37.470Z,33.17
2023-08-14T18:12:07.151Z,32.87
2023-08-14T18:14:34.141Z,32.19
2023-08-14T18:17:04.643Z,32.89
2023-08-14T18:19:34.932Z,32.55
2023-08-14T18:22:03.629Z,32.95
2023-08-14T18:24:31.244Z,32.84
2023-08-14T18:26:58.692Z,32.84
2023-08-14T18:29:27.213Z,33.06
2023-08-14T18:31:58.769Z,32.70
2023-08-14T18:34:31.489Z,33.02
2023-08-14T18:37:00.024Z,32.91
2023-08-14T18:39:28.160Z,32.85
2023-08-14T18:41:57.992Z,32.84
2023-08-14T18:44:25.114Z,32.75
2023-08-14T18:46:55.439Z,32.75
2023-08-14T18:49:24.270Z,32.60
2023-08-14T18:51:52.701Z,32.79
2023-08-14T18:54:22.332Z,32.51
2023-08-14T18:56:50.615Z,32.65
2023-08-14T18:59:27.732Z,32.79
2023-08-14T19:01:59.976Z,32.52
2023-08-14T19:04:40.623Z,32.39
2023-08-14T19:07:17.628Z,32.38
2023-08-14T19:09:45.489Z,32.40
2023-08-14T19:12:16.355Z,32.48
2023-08-14T19:14:43.392Z,32.25
2023-08-14T19:17:10.525Z,32.05
2023-08-14T19:19:37.486Z,32.08
2023-08-14T19:22:05.065Z,32.14
2023-08-14T19:24:32.130Z,32.16
2023-08-14T19:26:59.137Z,32.18
2023-08-14T19:29:26.231Z,32.27
2023-08-14T19:31:53.264Z,32.28
2023-08-14T19:34:20.350Z,32.19
2023-08-14T19:36:47.381Z,32.26
2023-08-14T19:39:14.372Z,32.24
2023-08-14T19:41:41.844Z,32.02
2023-08-14T19:44:10.989Z,32.02
2023-08-14T19:46:39.189Z,31.96
2023-08-14T19:49:06.165Z,31.92
2023-08-14T19:51:33.393Z,31.94
2023-08-14T19:54:00.393Z,32.01
2023-08-14T19:56:27.911Z,31.96
2023-08-14T19:58:54.929Z,31.92
2023-08-14T20:01:22.082Z,31.76
2023-08-14T20:03:49.223Z,31.70
2023-08-14T20:06:16.466Z,31.69
2023-08-14T20:08:43.850Z,31.75
2023-08-14T20:11:10.959Z,31.51
2023-08-14T20:13:37.950Z,31.85
2023-08-14T20:16:05.141Z,31.95
2023-08-14T20:18:32.221Z,31.83
2023-08-14T20:20:59.585Z,31.75
2023-08-14T20:23:29.541Z,31.70
2023-08-14T20:25:56.648Z,31.51
2023-08-14T20:28:23.742Z,31.60
2023-08-14T20:30:50.902Z,31.65
2023-08-14T20:33:18.023Z,31.62
2023-08-14T20:35:46.234Z,31.58
2023-08-14T20:38:14.213Z,31.27
2023-08-14T20:40:41.426Z,31.27
2023-08-14T20:43:13.817Z,31.56
2023-08-14T20:45:41.489Z,31.40
2023-08-14T20:48:09.133Z,31.13
2023-08-14T20:50:36.991Z,31.19
2023-08-14T20:53:04.739Z,31.22
2023-08-14T20:55:31.949Z,31.12
2023-08-14T20:57:58.980Z,31.15
2023-08-14T21:00:26.005Z,31.28
2023-08-14T21:02:53.124Z,31.15
2023-08-14T21:05:20.139Z,31.12
2023-08-14T21:07:47.150Z,31.14
2023-08-14T21:10:14.173Z,31.01
2023-08-14T21:12:41.276Z,30.98
2023-08-14T21:15:09.038Z,31.02
2023-08-14T21:17:36.126Z,31.01
2023-08-14T21:20:04.726Z,31.09
2023-08-14T21:22:31.935Z,31.02
2023-08-14T21:24:59.066Z,30.97
2023-08-14T21:27:26.075Z,30.93
2023-08-14T21:29:56.559Z,30.89
2023-08-14T21:32:23.605Z,30.87
2023-08-14T21:34:52.438Z,31.14
2023-08-14T21:37:22.596Z,31.20
2023-08-14T21:39:54.100Z,31.31
2023-08-14T21:42:24.433Z,31.22
2023-08-14T21:44:56.939Z,30.90
2023-08-14T21:47:26.425Z,30.66
2023-08-14T21:49:56.478Z,30.89
2023-08-14T21:52:25.809Z,31.04
2023-08-14T21:54:57.080Z,30.90
2023-08-14T21:57:26.371Z,31.15
2023-08-14T21:59:56.367Z,31.06
2023-08-14T22:02:23.837Z,30.98
2023-08-14T22:04:53.037Z,31.09
2023-08-14T22:07:24.062Z,31.11
2023-08-14T22:09:55.378Z,31.08
2023-08-14T22:12:26.134Z,31.00
2023-08-14T22:14:53.235Z,30.85
2023-08-14T22:17:23.245Z,30.93
2023-08-14T22:19:53.720Z,30.89
2023-08-14T22:22:23.139Z,31.02
2023-08-14T22:25:00.697Z,30.99
2023-08-14T22:27:33.499Z,31.05
2023-08-14T22:30:04.048Z,30.80
2023-08-14T22:32:34.302Z,30.94
2023-08-14T22:35:03.362Z,30.87
2023-08-14T22:37:31.267Z,30.74
2023-08-14T22:39:58.333Z,30.62
2023-08-14T22:42:27.530Z,30.30
2023-08-14T22:44:57.547Z,30.21
2023-08-14T22:47:27.483Z,30.54
2023-08-14T22:49:55.390Z,30.53
2023-08-14T22:52:23.794Z,30.43
2023-08-14T22:54:51.025Z,30.68
2023-08-14T22:57:18.320Z,30.62
2023-08-14T22:59:49.908Z,30.66
2023-08-14T23:02:17.854Z,30.84
2023-08-14T23:04:47.559Z,30.53
2023-08-14T23:07:19.857Z,30.29
2023-08-14T23:09:49.493Z,30.60
2023-08-14T23:12:28.466Z,30.66
2023-08-14T23:14:59.755Z,30.67
2023-08-14T23:17:27.125Z,30.57
2023-08-14T23:19:57.210Z,30.71
2023-08-14T23:22:25.040Z,30.48
2023-08-14T23:24:52.351Z,30.51
2023-08-14T23:27:20.231Z,30.57
2023-08-14T23:29:49.915Z,30.57
2023-08-14T23:32:19.527Z,30.65
2023-08-14T23:34:47.141Z,30.63
2023-08-14T23:37:15.746Z,30.72
2023-08-14T23:39:50.666Z,30.77
2023-08-14T23:42:20.658Z,30.56
2023-08-14T23:44:55.006Z,30.52
2023-08-14T23:47:26.886Z,30.40
2023-08-14T23:49:56.488Z,30.55
2023-08-14T23:52:23.692Z,30.31
2023-08-14T23:54:50.993Z,30.29
2023-08-14T23:57:17.931Z,30.20
2023-08-14T23:59:45.088Z,30.16
